sensor_id;sensor_type;location;lat;lon;timestamp;pressure;altitude;pressure_sealevel;temperature;humidity
13765;BME280;6953;48.810;9.204;2023-07-30T00:01:10;98179.38;;;19.10;100.00
13765;BME280;6953;48.810;9.204;2023-07-30T00:03:36;98270.81;;;19.55;100.00
13765;BME280;6953;48.810;9.204;2023-07-30T00:06:01;98286.25;;;19.52;100.00
13765;BME280;6953;48.810;9.204;2023-07-30T00:08:26;98273.06;;;19.50;100.00
13765;BME280;6953;48.810;9.204;2023-07-30T00:10:51;98296.03;;;19.51;100.00
13765;BME280;6953;48.810;9.204;2023-07-30T00:13:17;98003.19;;;17.99;100.00
13765;BME280;6953;48.810;9.204;2023-07-30T00:15:42;98265.53;;;19.46;100.00
13765;BME280;6953;48.810;9.204;2023-07-30T00:18:08;98075.25;;;18.42;100.00
13765;BME280;6953;48.810;9.204;2023-07-30T00:20:36;98264.84;;;19.44;100.00
13765;BME280;6953;48.810;9.204;2023-07-30T00:23:01;98189.03;;;19.11;100.00
13765;BME280;6953;48.810;9.204;2023-07-30T00:25:26;98019.97;;;18.09;100.00
13765;BME280;6953;48.810;9.204;2023-07-30T00:27:51;98286.66;;;19.57;100.00
13765;BME280;6953;48.810;9.204;2023-07-30T00:30:17;98284.13;;;19.55;100.00
13765;BME280;6953;48.810;9.204;2023-07-30T00:32:42;98079.88;;;18.31;100.00
13765;BME280;6953;48.810;9.204;2023-07-30T00:35:09;98289.97;;;19.59;100.00
13765;BME280;6953;48.810;9.204;2023-07-30T00:37:35;98290.56;;;19.62;100.00
13765;BME280;6953;48.810;9.204;2023-07-30T00:40:00;98306.06;;;19.67;100.00
13765;BME280;6953;48.810;9.204;2023-07-30T00:42:25;98074.44;;;18.32;100.00
13765;BME280;6953;48.810;9.204;2023-07-30T00:44:51;98269.13;;;19.54;100.00
13765;BME280;6953;48.810;9.204;2023-07-30T00:47:16;98140.31;;;18.75;100.00
13765;BME280;6953;48.810;9.204;2023-07-30T00:49:42;98291.53;;;19.61;100.00
13765;BME280;6953;48.810;9.204;2023-07-30T00:52:07;98113.69;;;18.48;100.00
13765;BME280;6953;48.810;9.204;2023-07-30T00:54:33;98300.88;;;19.29;100.00
13765;BME280;6953;48.810;9.204;2023-07-30T00:56:59;98340.31;;;19.43;100.00
13765;BME280;6953;48.810;9.204;2023-07-30T00:59:25;98293.72;;;19.29;100.00
13765;BME280;6953;48.810;9.204;2023-07-30T01:01:51;98312.19;;;19.40;100.00
13765;BME280;6953;48.810;9.204;2023-07-30T01:04:17;98304.50;;;19.37;100.00
13765;BME280;6953;48.810;9.204;2023-07-30T01:06:42;98313.72;;;19.43;100.00
13765;BME280;6953;48.810;9.204;2023-07-30T01:09:08;98261.44;;;19.05;100.00
13765;BME280;6953;48.810;9.204;2023-07-30T01:11:35;98241.97;;;19.05;100.00
13765;BME280;6953;48.810;9.204;2023-07-30T01:14:02;98321.38;;;19.55;100.00
13765;BME280;6953;48.810;9.204;2023-07-30T01:16:28;98311.00;;;19.62;100.00
13765;BME280;6953;48.810;9.204;2023-07-30T01:18:53;98315.75;;;19.68;100.00
13765;BME280;6953;48.810;9.204;2023-07-30T01:21:19;98346.25;;;19.73;100.00
13765;BME280;6953;48.810;9.204;2023-07-30T01:23:44;98253.09;;;19.37;100.00
13765;BME280;6953;48.810;9.204;2023-07-30T01:26:19;98285.69;;;19.48;100.00
13765;BME280;6953;48.810;9.204;2023-07-30T01:28:48;98079.56;;;18.43;100.00
13765;BME280;6953;48.810;9.204;2023-07-30T01:31:15;98087.69;;;18.51;100.00
13765;BME280;6953;48.810;9.204;2023-07-30T01:33:41;98249.94;;;19.60;100.00
13765;BME280;6953;48.810;9.204;2023-07-30T01:36:08;98322.06;;;20.03;100.00
13765;BME280;6953;48.810;9.204;2023-07-30T01:38:36;98300.31;;;19.71;100.00
13765;BME280;6953;48.810;9.204;2023-07-30T01:41:03;98329.38;;;20.01;100.00
13765;BME280;6953;48.810;9.204;2023-07-30T01:43:28;98093.38;;;18.56;100.00
13765;BME280;6953;48.810;9.204;2023-07-30T01:45:53;98337.06;;;19.94;100.00
13765;BME280;6953;48.810;9.204;2023-07-30T01:48:18;98314.03;;;19.76;100.00
13765;BME280;6953;48.810;9.204;2023-07-30T01:50:44;98295.97;;;19.70;100.00
13765;BME280;6953;48.810;9.204;2023-07-30T01:53:12;98280.72;;;19.63;100.00
13765;BME280;6953;48.810;9.204;2023-07-30T01:55:37;98148.97;;;18.86;100.00
13765;BME280;6953;48.810;9.204;2023-07-30T01:58:04;98341.09;;;20.08;100.00
13765;BME280;6953;48.810;9.204;2023-07-30T02:00:29;98338.41;;;20.08;100.00
13765;BME280;6953;48.810;9.204;2023-07-30T02:02:55;98114.72;;;18.74;100.00
13765;BME280;6953;48.810;9.204;2023-07-30T02:05:20;98325.28;;;19.97;100.00
13765;BME280;6953;48.810;9.204;2023-07-30T02:07:45;98232.91;;;19.44;100.00
13765;BME280;6953;48.810;9.204;2023-07-30T02:10:10;98316.75;;;19.93;100.00
13765;BME280;6953;48.810;9.204;2023-07-30T02:12:36;98335.22;;;20.04;100.00
13765;BME280;6953;48.810;9.204;2023-07-30T02:15:01;98369.56;;;20.07;100.00
13765;BME280;6953;48.810;9.204;2023-07-30T02:17:28;98332.09;;;20.09;100.00
13765;BME280;6953;48.810;9.204;2023-07-30T02:19:53;98330.00;;;20.12;100.00
13765;BME280;6953;48.810;9.204;2023-07-30T02:22:18;98347.25;;;20.08;100.00
13765;BME280;6953;48.810;9.204;2023-07-30T02:24:43;98295.03;;;19.98;100.00
13765;BME280;6953;48.810;9.204;2023-07-30T02:27:09;98323.69;;;20.13;100.00
13765;BME280;6953;48.810;9.204;2023-07-30T02:29:34;98330.13;;;20.11;100.00
13765;BME280;6953;48.810;9.204;2023-07-30T02:31:59;98328.78;;;20.07;100.00
13765;BME280;6953;48.810;9.204;2023-07-30T02:34:25;98321.38;;;20.01;100.00
13765;BME280;6953;48.810;9.204;2023-07-30T02:36:50;98097.03;;;18.46;100.00
13765;BME280;6953;48.810;9.204;2023-07-30T02:39:15;98097.16;;;18.54;100.00
13765;BME280;6953;48.810;9.204;2023-07-30T02:41:40;98269.66;;;19.58;100.00
13765;BME280;6953;48.810;9.204;2023-07-30T02:44:06;98344.75;;;20.07;100.00
13765;BME280;6953;48.810;9.204;2023-07-30T02:46:31;98341.00;;;19.90;100.00
13765;BME280;6953;48.810;9.204;2023-07-30T02:48:56;98343.16;;;20.14;100.00
13765;BME280;6953;48.810;9.204;2023-07-30T02:51:22;98350.88;;;20.17;100.00
13765;BME280;6953;48.810;9.204;2023-07-30T02:53:47;98360.53;;;20.18;100.00
13765;BME280;6953;48.810;9.204;2023-07-30T02:56:16;98113.22;;;18.71;100.00
13765;BME280;6953;48.810;9.204;2023-07-30T02:58:42;98228.94;;;19.21;100.00
13765;BME280;6953;48.810;9.204;2023-07-30T03:01:07;98257.75;;;19.35;100.00
13765;BME280;6953;48.810;9.204;2023-07-30T03:03:33;98075.56;;;18.11;100.00
13765;BME280;6953;48.810;9.204;2023-07-30T03:05:59;98319.03;;;19.43;100.00
13765;BME280;6953;48.810;9.204;2023-07-30T03:08:24;98350.94;;;19.52;100.00
13765;BME280;6953;48.810;9.204;2023-07-30T03:10:49;98346.06;;;19.48;100.00
13765;BME280;6953;48.810;9.204;2023-07-30T03:13:14;98372.41;;;19.41;100.00
13765;BME280;6953;48.810;9.204;2023-07-30T03:15:40;98349.19;;;19.34;100.00
13765;BME280;6953;48.810;9.204;2023-07-30T03:18:05;98344.56;;;19.26;100.00
13765;BME280;6953;48.810;9.204;2023-07-30T03:20:30;98338.13;;;19.29;100.00
13765;BME280;6953;48.810;9.204;2023-07-30T03:22:55;98093.47;;;17.90;100.00
13765;BME280;6953;48.810;9.204;2023-07-30T03:25:21;98272.91;;;18.96;100.00
13765;BME280;6953;48.810;9.204;2023-07-30T03:27:46;98357.25;;;19.51;100.00
13765;BME280;6953;48.810;9.204;2023-07-30T03:30:11;98349.53;;;19.58;100.00
13765;BME280;6953;48.810;9.204;2023-07-30T03:32:36;98359.63;;;19.54;100.00
13765;BME280;6953;48.810;9.204;2023-07-30T03:35:02;98352.31;;;19.66;100.00
13765;BME280;6953;48.810;9.204;2023-07-30T03:37:27;98333.72;;;19.56;100.00
13765;BME280;6953;48.810;9.204;2023-07-30T03:39:52;98272.63;;;19.18;100.00
13765;BME280;6953;48.810;9.204;2023-07-30T03:42:18;98350.50;;;19.66;100.00
13765;BME280;6953;48.810;9.204;2023-07-30T03:44:43;98353.16;;;19.66;100.00
13765;BME280;6953;48.810;9.204;2023-07-30T03:47:09;98295.81;;;19.35;100.00
13765;BME280;6953;48.810;9.204;2023-07-30T03:49:34;98358.75;;;19.73;100.00
13765;BME280;6953;48.810;9.204;2023-07-30T03:51:59;98374.28;;;19.77;100.00
13765;BME280;6953;48.810;9.204;2023-07-30T03:54:25;98365.16;;;19.80;100.00
13765;BME280;6953;48.810;9.204;2023-07-30T03:56:50;98363.88;;;19.84;100.00
13765;BME280;6953;48.810;9.204;2023-07-30T03:59:15;98366.78;;;19.90;100.00
13765;BME280;6953;48.810;9.204;2023-07-30T04:01:41;98374.78;;;19.90;100.00
13765;BME280;6953;48.810;9.204;2023-07-30T04:04:06;98238.50;;;19.14;100.00
13765;BME280;6953;48.810;9.204;2023-07-30T04:06:31;98352.53;;;19.82;100.00
13765;BME280;6953;48.810;9.204;2023-07-30T04:08:56;98417.38;;;19.99;100.00
13765;BME280;6953;48.810;9.204;2023-07-30T04:11:22;98373.50;;;20.03;100.00
13765;BME280;6953;48.810;9.204;2023-07-30T04:13:47;98194.09;;;19.05;100.00
13765;BME280;6953;48.810;9.204;2023-07-30T04:16:12;98207.13;;;19.17;100.00
13765;BME280;6953;48.810;9.204;2023-07-30T04:18:37;98370.75;;;20.22;100.00
13765;BME280;6953;48.810;9.204;2023-07-30T04:21:03;98371.19;;;20.18;100.00
13765;BME280;6953;48.810;9.204;2023-07-30T04:23:28;98373.16;;;20.16;100.00
13765;BME280;6953;48.810;9.204;2023-07-30T04:25:53;98378.09;;;20.11;100.00
13765;BME280;6953;48.810;9.204;2023-07-30T04:28:19;98375.47;;;20.01;100.00
13765;BME280;6953;48.810;9.204;2023-07-30T04:30:44;98381.78;;;20.00;100.00
13765;BME280;6953;48.810;9.204;2023-07-30T04:33:12;98346.25;;;19.73;100.00
13765;BME280;6953;48.810;9.204;2023-07-30T04:35:39;98322.13;;;19.48;100.00
13765;BME280;6953;48.810;9.204;2023-07-30T04:38:04;98409.22;;;20.10;100.00
13765;BME280;6953;48.810;9.204;2023-07-30T04:40:29;98413.69;;;20.10;100.00
13765;BME280;6953;48.810;9.204;2023-07-30T04:42:55;98417.34;;;20.09;100.00
13765;BME280;6953;48.810;9.204;2023-07-30T04:45:20;98385.84;;;19.95;100.00
13765;BME280;6953;48.810;9.204;2023-07-30T04:47:45;98277.06;;;19.27;100.00
13765;BME280;6953;48.810;9.204;2023-07-30T04:50:10;98174.72;;;18.76;100.00
13765;BME280;6953;48.810;9.204;2023-07-30T04:52:37;98302.75;;;19.55;100.00
13765;BME280;6953;48.810;9.204;2023-07-30T04:55:03;98406.53;;;20.20;100.00
13765;BME280;6953;48.810;9.204;2023-07-30T04:57:28;98318.53;;;19.76;100.00
13765;BME280;6953;48.810;9.204;2023-07-30T04:59:53;98426.66;;;20.32;100.00
13765;BME280;6953;48.810;9.204;2023-07-30T05:02:19;98409.53;;;20.34;100.00
13765;BME280;6953;48.810;9.204;2023-07-30T05:04:44;98447.22;;;20.39;100.00
13765;BME280;6953;48.810;9.204;2023-07-30T05:07:10;98145.78;;;18.83;100.00
13765;BME280;6953;48.810;9.204;2023-07-30T05:09:35;98419.47;;;20.42;100.00
13765;BME280;6953;48.810;9.204;2023-07-30T05:12:00;98336.50;;;19.91;100.00
13765;BME280;6953;48.810;9.204;2023-07-30T05:14:25;98425.63;;;20.42;100.00
13765;BME280;6953;48.810;9.204;2023-07-30T05:16:51;98445.25;;;20.41;100.00
13765;BME280;6953;48.810;9.204;2023-07-30T05:19:16;98450.06;;;20.38;100.00
13765;BME280;6953;48.810;9.204;2023-07-30T05:21:42;98321.94;;;19.59;100.00
13765;BME280;6953;48.810;9.204;2023-07-30T05:24:07;98451.34;;;20.34;100.00
13765;BME280;6953;48.810;9.204;2023-07-30T05:26:33;98441.25;;;20.37;100.00
13765;BME280;6953;48.810;9.204;2023-07-30T05:28:58;98416.72;;;20.24;100.00
13765;BME280;6953;48.810;9.204;2023-07-30T05:31:23;98196.94;;;18.94;100.00
13765;BME280;6953;48.810;9.204;2023-07-30T05:33:48;98447.28;;;20.30;100.00
13765;BME280;6953;48.810;9.204;2023-07-30T05:36:14;98449.91;;;20.03;100.00
13765;BME280;6953;48.810;9.204;2023-07-30T05:38:39;98274.72;;;19.24;100.00
13765;BME280;6953;48.810;9.204;2023-07-30T05:41:04;98436.50;;;20.31;100.00
13765;BME280;6953;48.810;9.204;2023-07-30T05:43:30;98466.28;;;20.44;100.00
13765;BME280;6953;48.810;9.204;2023-07-30T05:45:55;98424.34;;;20.46;100.00
13765;BME280;6953;48.810;9.204;2023-07-30T05:48:20;98208.50;;;19.21;100.00
13765;BME280;6953;48.810;9.204;2023-07-30T05:50:45;98440.28;;;20.56;100.00
13765;BME280;6953;48.810;9.204;2023-07-30T05:53:11;98443.47;;;20.59;100.00
13765;BME280;6953;48.810;9.204;2023-07-30T05:55:36;98450.06;;;20.65;100.00
13765;BME280;6953;48.810;9.204;2023-07-30T05:58:01;98432.78;;;20.69;100.00
13765;BME280;6953;48.810;9.204;2023-07-30T06:00:27;98436.81;;;20.73;100.00
13765;BME280;6953;48.810;9.204;2023-07-30T06:02:52;98138.53;;;19.02;100.00
13765;BME280;6953;48.810;9.204;2023-07-30T06:05:17;98360.38;;;20.46;100.00
13765;BME280;6953;48.810;9.204;2023-07-30T06:07:43;98383.34;;;20.74;100.00
13765;BME280;6953;48.810;9.204;2023-07-30T06:10:08;98391.06;;;20.95;100.00
13765;BME280;6953;48.810;9.204;2023-07-30T06:12:33;98424.66;;;21.57;100.00
13765;BME280;6953;48.810;9.204;2023-07-30T06:14:59;98421.88;;;22.09;100.00
13765;BME280;6953;48.810;9.204;2023-07-30T06:17:24;98435.44;;;22.41;100.00
13765;BME280;6953;48.810;9.204;2023-07-30T06:19:49;98279.59;;;21.23;100.00
13765;BME280;6953;48.810;9.204;2023-07-30T06:22:15;98237.50;;;20.92;100.00
13765;BME280;6953;48.810;9.204;2023-07-30T06:24:40;98439.84;;;22.00;100.00
13765;BME280;6953;48.810;9.204;2023-07-30T06:27:05;98433.69;;;21.82;100.00
13765;BME280;6953;48.810;9.204;2023-07-30T06:29:31;98438.72;;;21.85;100.00
13765;BME280;6953;48.810;9.204;2023-07-30T06:31:56;98437.72;;;21.78;100.00
13765;BME280;6953;48.810;9.204;2023-07-30T06:34:22;98431.78;;;21.66;100.00
13765;BME280;6953;48.810;9.204;2023-07-30T06:36:47;98420.25;;;21.48;100.00
13765;BME280;6953;48.810;9.204;2023-07-30T06:39:12;98454.50;;;21.35;100.00
13765;BME280;6953;48.810;9.204;2023-07-30T06:41:37;98259.75;;;20.83;100.00
13765;BME280;6953;48.810;9.204;2023-07-30T06:44:03;98443.25;;;23.65;100.00
13765;BME280;6953;48.810;9.204;2023-07-30T06:46:28;98470.72;;;25.60;100.00
13765;BME280;6953;48.810;9.204;2023-07-30T06:48:54;98407.22;;;26.47;100.00
13765;BME280;6953;48.810;9.204;2023-07-30T06:51:19;98472.34;;;26.86;94.47
13765;BME280;6953;48.810;9.204;2023-07-30T06:53:45;98262.72;;;25.33;92.73
13765;BME280;6953;48.810;9.204;2023-07-30T06:56:10;98474.22;;;26.20;94.34
13765;BME280;6953;48.810;9.204;2023-07-30T06:58:35;98265.22;;;24.75;94.57
13765;BME280;6953;48.810;9.204;2023-07-30T07:01:01;98417.28;;;25.21;95.98
13765;BME280;6953;48.810;9.204;2023-07-30T07:03:26;98412.34;;;24.71;97.32
13765;BME280;6953;48.810;9.204;2023-07-30T07:05:55;98474.41;;;24.68;98.87
13765;BME280;6953;48.810;9.204;2023-07-30T07:08:21;98480.41;;;24.32;100.00
13765;BME280;6953;48.810;9.204;2023-07-30T07:10:47;98257.63;;;22.69;100.00
13765;BME280;6953;48.810;9.204;2023-07-30T07:13:12;98462.84;;;23.74;100.00
13765;BME280;6953;48.810;9.204;2023-07-30T07:15:43;98478.09;;;23.73;100.00
13765;BME280;6953;48.810;9.204;2023-07-30T07:18:09;98500.19;;;23.67;100.00
13765;BME280;6953;48.810;9.204;2023-07-30T07:20:35;98485.59;;;23.70;100.00
13765;BME280;6953;48.810;9.204;2023-07-30T07:23:00;98474.41;;;23.66;100.00
13765;BME280;6953;48.810;9.204;2023-07-30T07:25:26;98484.13;;;23.67;100.00
13765;BME280;6953;48.810;9.204;2023-07-30T07:27:51;98487.78;;;23.66;100.00
13765;BME280;6953;48.810;9.204;2023-07-30T07:30:16;98300.91;;;22.49;100.00
13765;BME280;6953;48.810;9.204;2023-07-30T07:32:42;98448.59;;;23.33;100.00
13765;BME280;6953;48.810;9.204;2023-07-30T07:35:07;98297.28;;;22.16;100.00
13765;BME280;6953;48.810;9.204;2023-07-30T07:37:33;98296.44;;;21.75;100.00
13765;BME280;6953;48.810;9.204;2023-07-30T07:39:58;98532.03;;;22.46;100.00
13765;BME280;6953;48.810;9.204;2023-07-30T07:42:23;98519.47;;;21.96;100.00
13765;BME280;6953;48.810;9.204;2023-07-30T07:44:49;98531.72;;;21.64;100.00
13765;BME280;6953;48.810;9.204;2023-07-30T07:47:14;98550.75;;;21.34;100.00
13765;BME280;6953;48.810;9.204;2023-07-30T07:49:39;98517.47;;;21.11;100.00
13765;BME280;6953;48.810;9.204;2023-07-30T07:52:05;98523.69;;;21.02;100.00
13765;BME280;6953;48.810;9.204;2023-07-30T07:54:30;98252.84;;;19.30;100.00
13765;BME280;6953;48.810;9.204;2023-07-30T07:56:56;98308.50;;;19.60;100.00
13765;BME280;6953;48.810;9.204;2023-07-30T07:59:21;98433.94;;;20.30;100.00
13765;BME280;6953;48.810;9.204;2023-07-30T08:01:46;98293.09;;;19.54;100.00
13765;BME280;6953;48.810;9.204;2023-07-30T08:04:11;98527.78;;;21.41;100.00
13765;BME280;6953;48.810;9.204;2023-07-30T08:06:37;98527.22;;;21.64;100.00
13765;BME280;6953;48.810;9.204;2023-07-30T08:09:02;98524.88;;;21.79;100.00
13765;BME280;6953;48.810;9.204;2023-07-30T08:11:27;98502.41;;;21.72;100.00
13765;BME280;6953;48.810;9.204;2023-07-30T08:13:53;98525.09;;;22.10;100.00
13765;BME280;6953;48.810;9.204;2023-07-30T08:16:18;98406.56;;;21.69;100.00
13765;BME280;6953;48.810;9.204;2023-07-30T08:18:43;98513.94;;;22.66;100.00
13765;BME280;6953;48.810;9.204;2023-07-30T08:21:08;98478.41;;;22.89;100.00
13765;BME280;6953;48.810;9.204;2023-07-30T08:23:34;98351.63;;;22.90;100.00
13765;BME280;6953;48.810;9.204;2023-07-30T08:25:59;98339.94;;;23.63;96.69
13765;BME280;6953;48.810;9.204;2023-07-30T08:28:24;98512.00;;;25.67;92.63
13765;BME280;6953;48.810;9.204;2023-07-30T08:30:50;98464.38;;;26.49;88.46
13765;BME280;6953;48.810;9.204;2023-07-30T08:33:15;98517.91;;;28.29;82.05
13765;BME280;6953;48.810;9.204;2023-07-30T08:35:40;98505.25;;;30.17;72.36
13765;BME280;6953;48.810;9.204;2023-07-30T08:38:06;98341.78;;;30.68;63.94
13765;BME280;6953;48.810;9.204;2023-07-30T08:40:31;98533.25;;;32.00;62.68
13765;BME280;6953;48.810;9.204;2023-07-30T08:42:57;98366.84;;;30.51;59.98
13765;BME280;6953;48.810;9.204;2023-07-30T08:45:22;98521.41;;;30.94;60.45
13765;BME280;6953;48.810;9.204;2023-07-30T08:47:48;98507.84;;;31.01;61.05
13765;BME280;6953;48.810;9.204;2023-07-30T08:50:13;98519.94;;;31.11;61.01
13765;BME280;6953;48.810;9.204;2023-07-30T08:52:39;98514.69;;;31.03;62.01
13765;BME280;6953;48.810;9.204;2023-07-30T08:55:06;98391.69;;;30.41;60.29
13765;BME280;6953;48.810;9.204;2023-07-30T08:57:33;98379.63;;;30.31;58.33
13765;BME280;6953;48.810;9.204;2023-07-30T09:00:04;98521.19;;;30.96;55.70
13765;BME280;6953;48.810;9.204;2023-07-30T09:05:01;98353.34;;;30.38;54.18
13765;BME280;6953;48.810;9.204;2023-07-30T09:07:27;98535.34;;;31.68;55.28
13765;BME280;6953;48.810;9.204;2023-07-30T09:09:53;98553.41;;;31.43;54.42
13765;BME280;6953;48.810;9.204;2023-07-30T09:12:18;98349.38;;;30.40;54.23
13765;BME280;6953;48.810;9.204;2023-07-30T09:14:46;98483.44;;;31.89;52.95
13765;BME280;6953;48.810;9.204;2023-07-30T09:17:17;98407.28;;;32.01;50.82
13765;BME280;6953;48.810;9.204;2023-07-30T09:19:43;98502.03;;;32.65;48.61
13765;BME280;6953;48.810;9.204;2023-07-30T09:22:08;98546.59;;;32.64;49.63
13765;BME280;6953;48.810;9.204;2023-07-30T09:24:34;98516.16;;;31.93;50.44
13765;BME280;6953;48.810;9.204;2023-07-30T09:27:02;98546.00;;;31.12;50.60
13765;BME280;6953;48.810;9.204;2023-07-30T09:29:28;98543.81;;;30.58;53.26
13765;BME280;6953;48.810;9.204;2023-07-30T09:31:54;98546.88;;;30.42;53.70
13765;BME280;6953;48.810;9.204;2023-07-30T09:34:22;98347.34;;;29.19;52.34
13765;BME280;6953;48.810;9.204;2023-07-30T09:36:50;98557.81;;;29.82;53.84
13765;BME280;6953;48.810;9.204;2023-07-30T09:39:21;98499.59;;;28.25;56.06
13765;BME280;6953;48.810;9.204;2023-07-30T09:41:46;98562.09;;;27.86;59.03
13765;BME280;6953;48.810;9.204;2023-07-30T09:44:13;98396.06;;;27.00;59.93
13765;BME280;6953;48.810;9.204;2023-07-30T09:46:49;98359.97;;;27.57;56.44
13765;BME280;6953;48.810;9.204;2023-07-30T09:49:15;98422.38;;;27.75;56.01
13765;BME280;6953;48.810;9.204;2023-07-30T09:51:41;98581.13;;;28.20;57.25
13765;BME280;6953;48.810;9.204;2023-07-30T09:54:07;98571.25;;;27.36;58.51
13765;BME280;6953;48.810;9.204;2023-07-30T09:56:37;98570.50;;;26.69;61.68
13765;BME280;6953;48.810;9.204;2023-07-30T09:59:06;98563.41;;;26.32;62.13
13765;BME280;6953;48.810;9.204;2023-07-30T10:01:38;98526.09;;;26.51;61.98
13765;BME280;6953;48.810;9.204;2023-07-30T10:04:08;98572.63;;;28.23;56.93
13765;BME280;6953;48.810;9.204;2023-07-30T10:06:38;98573.59;;;30.71;49.51
13765;BME280;6953;48.810;9.204;2023-07-30T10:09:05;98567.25;;;32.09;44.30
13765;BME280;6953;48.810;9.204;2023-07-30T10:11:32;98580.59;;;31.23;44.73
13765;BME280;6953;48.810;9.204;2023-07-30T10:13:58;98592.09;;;30.48;45.14
13765;BME280;6953;48.810;9.204;2023-07-30T10:16:29;98551.13;;;31.40;42.17
13765;BME280;6953;48.810;9.204;2023-07-30T10:18:57;98604.44;;;34.20;35.13
13765;BME280;6953;48.810;9.204;2023-07-30T10:21:26;98598.84;;;35.71;32.04
13765;BME280;6953;48.810;9.204;2023-07-30T10:24:04;98591.28;;;35.50;29.95
13765;BME280;6953;48.810;9.204;2023-07-30T10:26:31;98600.16;;;35.68;31.03
13765;BME280;6953;48.810;9.204;2023-07-30T10:29:11;98562.88;;;36.46;28.27
13765;BME280;6953;48.810;9.204;2023-07-30T10:31:40;98611.69;;;35.98;28.85
13765;BME280;6953;48.810;9.204;2023-07-30T10:34:07;98473.84;;;35.22;29.10
13765;BME280;6953;48.810;9.204;2023-07-30T10:36:42;98594.88;;;35.90;28.72
13765;BME280;6953;48.810;9.204;2023-07-30T10:39:19;98611.44;;;35.72;28.53
13765;BME280;6953;48.810;9.204;2023-07-30T10:41:57;98447.72;;;35.82;26.83
13765;BME280;6953;48.810;9.204;2023-07-30T10:44:34;98617.31;;;37.46;25.74
13765;BME280;6953;48.810;9.204;2023-07-30T10:47:01;98505.47;;;36.02;26.68
13765;BME280;6953;48.810;9.204;2023-07-30T10:49:28;98493.25;;;36.37;26.01
13765;BME280;6953;48.810;9.204;2023-07-30T10:55:15;98607.81;;;38.39;23.76
13765;BME280;6953;48.810;9.204;2023-07-30T10:57:40;98631.84;;;38.85;23.53
13765;BME280;6953;48.810;9.204;2023-07-30T11:00:09;98625.44;;;39.47;22.38
13765;BME280;6953;48.810;9.204;2023-07-30T11:02:35;98611.41;;;39.07;23.22
13765;BME280;6953;48.810;9.204;2023-07-30T11:05:11;98635.03;;;39.03;22.47
13765;BME280;6953;48.810;9.204;2023-07-30T11:07:36;98507.69;;;38.15;23.03
13765;BME280;6953;48.810;9.204;2023-07-30T11:10:02;98603.59;;;37.25;25.13
13765;BME280;6953;48.810;9.204;2023-07-30T11:12:27;98616.81;;;35.21;27.24
13765;BME280;6953;48.810;9.204;2023-07-30T11:15:02;98597.47;;;33.59;31.12
13765;BME280;6953;48.810;9.204;2023-07-30T11:17:28;98619.84;;;33.25;31.57
13765;BME280;6953;48.810;9.204;2023-07-30T11:19:53;98627.88;;;33.38;30.69
13765;BME280;6953;48.810;9.204;2023-07-30T11:22:29;98609.22;;;32.75;32.22
13765;BME280;6953;48.810;9.204;2023-07-30T11:24:55;98535.28;;;34.56;29.76
13765;BME280;6953;48.810;9.204;2023-07-30T11:27:21;98562.34;;;35.26;27.46
13765;BME280;6953;48.810;9.204;2023-07-30T11:29:56;98471.25;;;32.71;31.12
13765;BME280;6953;48.810;9.204;2023-07-30T11:32:22;98628.59;;;33.27;32.53
13765;BME280;6953;48.810;9.204;2023-07-30T11:34:52;98620.59;;;32.35;35.65
13765;BME280;6953;48.810;9.204;2023-07-30T11:37:20;98615.13;;;31.54;37.45
13765;BME280;6953;48.810;9.204;2023-07-30T11:39:47;98565.03;;;32.31;35.58
13765;BME280;6953;48.810;9.204;2023-07-30T11:42:13;98619.88;;;34.26;32.01
13765;BME280;6953;48.810;9.204;2023-07-30T11:44:38;98625.59;;;35.46;29.78
13765;BME280;6953;48.810;9.204;2023-07-30T11:47:05;98581.94;;;35.34;28.30
13765;BME280;6953;48.810;9.204;2023-07-30T11:49:30;98602.13;;;35.11;29.27
13765;BME280;6953;48.810;9.204;2023-07-30T11:52:06;98464.06;;;34.41;29.28
13765;BME280;6953;48.810;9.204;2023-07-30T11:54:32;98584.28;;;35.42;29.08
13765;BME280;6953;48.810;9.204;2023-07-30T11:56:57;98624.28;;;36.99;27.21
13765;BME280;6953;48.810;9.204;2023-07-30T11:59:23;98477.09;;;36.52;25.97
13765;BME280;6953;48.810;9.204;2023-07-30T12:01:48;98641.88;;;38.69;25.66
13765;BME280;6953;48.810;9.204;2023-07-30T12:04:14;98591.50;;;39.22;22.77
13765;BME280;6953;48.810;9.204;2023-07-30T12:06:44;98519.53;;;38.78;23.74
13765;BME280;6953;48.810;9.204;2023-07-30T12:09:15;98658.84;;;40.27;22.39
13765;BME280;6953;48.810;9.204;2023-07-30T12:11:53;98668.13;;;40.06;21.71
13765;BME280;6953;48.810;9.204;2023-07-30T12:14:21;98654.47;;;40.26;22.20
13765;BME280;6953;48.810;9.204;2023-07-30T12:16:47;98660.91;;;40.71;21.65
13765;BME280;6953;48.810;9.204;2023-07-30T12:19:12;98554.88;;;40.69;20.70
13765;BME280;6953;48.810;9.204;2023-07-30T12:21:37;98666.44;;;41.46;20.95
13765;BME280;6953;48.810;9.204;2023-07-30T12:24:03;98650.44;;;40.68;21.67
13765;BME280;6953;48.810;9.204;2023-07-30T12:26:29;98657.28;;;39.38;22.92
13765;BME280;6953;48.810;9.204;2023-07-30T12:28:54;98654.78;;;38.69;23.54
13765;BME280;6953;48.810;9.204;2023-07-30T12:31:20;98612.88;;;37.24;25.28
13765;BME280;6953;48.810;9.204;2023-07-30T12:33:45;98640.72;;;37.91;24.61
13765;BME280;6953;48.810;9.204;2023-07-30T12:36:10;98583.16;;;37.91;24.01
13765;BME280;6953;48.810;9.204;2023-07-30T12:38:35;98626.66;;;36.35;26.97
13765;BME280;6953;48.810;9.204;2023-07-30T12:41:01;98620.69;;;36.10;26.94
13765;BME280;6953;48.810;9.204;2023-07-30T12:43:26;98482.31;;;34.86;27.43
13765;BME280;6953;48.810;9.204;2023-07-30T12:45:51;98646.63;;;35.34;28.70
13765;BME280;6953;48.810;9.204;2023-07-30T12:48:17;98588.91;;;33.56;31.17
13765;BME280;6953;48.810;9.204;2023-07-30T12:50:42;98620.09;;;32.75;33.39
13765;BME280;6953;48.810;9.204;2023-07-30T12:53:07;98606.84;;;34.92;29.75
13765;BME280;6953;48.810;9.204;2023-07-30T12:55:33;98460.94;;;35.57;25.94
13765;BME280;6953;48.810;9.204;2023-07-30T12:57:58;98659.25;;;37.30;24.79
13765;BME280;6953;48.810;9.204;2023-07-30T13:00:24;98661.09;;;38.00;24.48
13765;BME280;6953;48.810;9.204;2023-07-30T13:02:49;98558.91;;;37.03;24.52
13765;BME280;6953;48.810;9.204;2023-07-30T13:05:17;98657.16;;;35.42;26.80